createdAt,value
2018-05-26T00:01:11.380Z,16.30
2018-05-26T00:03:39.629Z,15.55
2018-05-26T00:06:07.124Z,15.05
2018-05-26T00:08:35.332Z,16.45
2018-05-26T00:11:02.816Z,14.57
2018-05-26T00:13:30.332Z,16.50
2018-05-26T00:15:58.104Z,15.07
2018-05-26T00:18:28.622Z,15.30
2018-05-26T00:20:56.868Z,14.40
2018-05-26T00:23:24.723Z,14.00
2018-05-26T00:25:52.201Z,18.17
2018-05-26T00:28:19.679Z,16.77
2018-05-26T00:30:47.212Z,16.08
2018-05-26T00:33:14.669Z,15.70
2018-05-26T00:35:42.140Z,16.37
2018-05-26T00:38:09.596Z,14.97
2018-05-26T00:40:38.016Z,15.25
2018-05-26T00:43:05.728Z,16.37
2018-05-26T00:45:34.007Z,14.83
2018-05-26T00:48:01.656Z,15.17
2018-05-26T00:50:29.223Z,13.88
2018-05-26T00:52:57.628Z,14.43
2018-05-26T00:55:25.133Z,16.33
2018-05-26T00:57:52.920Z,17.33
2018-05-26T01:00:20.381Z,16.27
2018-05-26T01:02:53.191Z,16.77
2018-05-26T01:05:20.701Z,17.07
2018-05-26T01:07:48.189Z,18.10
2018-05-26T01:10:15.648Z,16.70
2018-05-26T01:12:43.412Z,15.67
2018-05-26T01:15:12.382Z,14.63
2018-05-26T01:17:44.261Z,14.60
2018-05-26T01:20:12.078Z,14.93
2018-05-26T01:22:39.548Z,14.48
2018-05-26T01:25:07.132Z,13.47
2018-05-26T01:27:34.609Z,12.43
2018-05-26T01:30:02.217Z,14.65
2018-05-26T01:32:29.823Z,12.23
2018-05-26T01:35:04.433Z,12.93
2018-05-26T01:37:32.157Z,13.62
2018-05-26T01:39:59.644Z,12.83
2018-05-26T01:42:27.115Z,11.32
2018-05-26T01:44:54.580Z,14.98
2018-05-26T01:47:23.053Z,14.07
2018-05-26T01:49:51.336Z,15.30
2018-05-26T01:52:18.838Z,13.50
2018-05-26T01:54:46.352Z,15.87
2018-05-26T01:57:13.921Z,15.47
2018-05-26T01:59:41.393Z,12.47
2018-05-26T02:02:09.551Z,13.33
2018-05-26T02:04:37.006Z,15.10
2018-05-26T02:07:04.617Z,13.43
2018-05-26T02:09:32.127Z,18.62
2018-05-26T02:11:59.635Z,14.20
2018-05-26T02:14:27.118Z,16.33
2018-05-26T02:16:54.597Z,15.27
2018-05-26T02:19:22.843Z,14.15
2018-05-26T02:21:50.317Z,13.75
2018-05-26T02:24:18.594Z,14.72
2018-05-26T02:26:46.064Z,14.07
2018-05-26T02:29:13.715Z,14.07
2018-05-26T02:31:41.272Z,12.65
2018-05-26T02:34:12.786Z,16.13
2018-05-26T02:36:40.398Z,16.80
2018-05-26T02:39:08.862Z,15.82
2018-05-26T02:41:36.340Z,15.50
2018-05-26T02:44:03.794Z,16.13
2018-05-26T02:46:31.287Z,15.50
2018-05-26T02:49:02.184Z,14.57
2018-05-26T02:51:29.693Z,15.27
2018-05-26T02:53:58.294Z,16.03
2018-05-26T02:56:25.785Z,15.77
2018-05-26T02:58:53.562Z,14.17
2018-05-26T03:01:21.040Z,17.95
2018-05-26T03:03:48.039Z,16.20
2018-05-26T03:06:22.028Z,13.62
2018-05-26T03:08:55.003Z,15.73
2018-05-26T03:11:28.845Z,14.30
2018-05-26T03:14:03.389Z,16.17
2018-05-26T03:16:31.674Z,17.43
2018-05-26T03:19:00.869Z,14.52
2018-05-26T03:21:28.380Z,17.27
2018-05-26T03:23:55.857Z,16.02
2018-05-26T03:26:23.337Z,14.55
2018-05-26T03:28:50.801Z,15.50
2018-05-26T03:31:19.021Z,16.48
2018-05-26T03:33:46.482Z,14.93
2018-05-26T03:36:13.991Z,15.50
2018-05-26T03:38:41.474Z,14.60
2018-05-26T03:41:09.037Z,15.23
2018-05-26T03:43:36.507Z,16.83
2018-05-26T03:46:04.115Z,16.50
2018-05-26T03:48:31.584Z,15.10
2018-05-26T03:51:03.585Z,15.95
2018-05-26T03:53:31.161Z,13.77
2018-05-26T03:56:10.483Z,15.63
2018-05-26T03:58:49.807Z,13.70
2018-05-26T04:01:17.264Z,13.90
2018-05-26T04:03:44.714Z,12.30
2018-05-26T04:06:15.415Z,13.23
2018-05-26T04:08:42.960Z,12.27
2018-05-26T04:11:11.088Z,14.07
2018-05-26T04:13:38.530Z,11.63
2018-05-26T04:16:06.027Z,12.73
2018-05-26T04:18:33.521Z,12.30
2018-05-26T04:21:04.723Z,14.77
2018-05-26T04:23:32.206Z,12.67
2018-05-26T04:26:00.621Z,12.10
2018-05-26T04:28:28.917Z,10.63
2018-05-26T04:30:56.379Z,11.83
2018-05-26T04:33:23.872Z,12.53
2018-05-26T04:35:51.357Z,11.60
2018-05-26T04:38:18.876Z,11.47
2018-05-26T04:40:46.387Z,11.57
2018-05-26T04:43:14.617Z,11.77
2018-05-26T04:45:42.074Z,11.30
2018-05-26T04:48:09.535Z,10.33
2018-05-26T04:50:37.024Z,11.63
2018-05-26T04:53:04.505Z,9.73
2018-05-26T04:55:31.985Z,9.85
2018-05-26T04:57:59.702Z,10.13
2018-05-26T05:00:29.118Z,9.10
2018-05-26T05:02:56.583Z,9.68
2018-05-26T05:05:24.136Z,9.83
2018-05-26T05:07:51.638Z,9.35
2018-05-26T05:10:19.100Z,9.40
2018-05-26T05:12:46.580Z,8.63
2018-05-26T05:15:14.040Z,9.05
2018-05-26T05:17:43.539Z,9.15
2018-05-26T05:20:11.051Z,9.00
2018-05-26T05:22:38.514Z,8.05
2018-05-26T05:25:06.590Z,8.00
2018-05-26T05:27:34.092Z,7.97
2018-05-26T05:30:01.567Z,9.17
2018-05-26T05:32:29.878Z,8.17
2018-05-26T05:34:57.316Z,8.50
2018-05-26T05:37:26.378Z,8.43
2018-05-26T05:39:53.876Z,7.90
2018-05-26T05:42:21.337Z,8.33
2018-05-26T05:44:48.797Z,7.03
2018-05-26T05:47:16.285Z,7.93
2018-05-26T05:49:43.764Z,8.93
2018-05-26T05:52:22.581Z,8.37
2018-05-26T05:54:50.050Z,9.25
2018-05-26T05:57:17.552Z,8.90
2018-05-26T05:59:45.944Z,9.20
2018-05-26T06:02:13.419Z,8.50
2018-05-26T06:04:40.925Z,8.40
2018-05-26T06:07:08.484Z,8.57
2018-05-26T06:09:35.942Z,9.18
2018-05-26T06:12:03.447Z,8.57
2018-05-26T06:14:31.032Z,8.60
2018-05-26T06:16:59.432Z,9.57
2018-05-26T06:19:26.931Z,10.20
2018-05-26T06:21:54.406Z,8.30
2018-05-26T06:24:21.865Z,10.82
2018-05-26T06:26:49.343Z,9.50
2018-05-26T06:29:16.807Z,9.27
2018-05-26T06:31:44.331Z,9.80
2018-05-26T06:34:11.767Z,8.90
2018-05-26T06:36:39.259Z,10.27
2018-05-26T06:39:07.659Z,9.82
2018-05-26T06:41:35.217Z,9.50
2018-05-26T06:44:02.673Z,9.63
2018-05-26T06:46:30.173Z,8.60
2018-05-26T06:48:57.679Z,10.20
2018-05-26T06:51:25.219Z,9.43
2018-05-26T06:53:57.165Z,9.93
2018-05-26T06:56:24.648Z,11.00
2018-05-26T06:58:52.121Z,8.87
2018-05-26T07:01:19.597Z,9.77
2018-05-26T07:03:47.110Z,9.50
2018-05-26T07:06:14.573Z,10.93
2018-05-26T07:11:20.436Z,10.60
2018-05-26T07:13:47.891Z,9.20
2018-05-26T07:16:15.366Z,9.20
2018-05-26T07:18:42.873Z,9.68
2018-05-26T07:21:10.365Z,9.60
2018-05-26T07:23:41.346Z,8.40
2018-05-26T07:26:08.846Z,9.00
2018-05-26T07:28:36.785Z,8.60
2018-05-26T07:31:04.276Z,9.23
2018-05-26T07:33:31.743Z,8.23
2018-05-26T07:35:59.188Z,8.50
2018-05-26T07:38:30.806Z,7.60
2018-05-26T07:40:58.268Z,8.13
2018-05-26T07:43:26.501Z,7.00
2018-05-26T07:45:54.026Z,7.37
2018-05-26T07:48:21.482Z,7.47
2018-05-26T07:50:48.941Z,7.60
2018-05-26T07:53:16.573Z,8.47
2018-05-26T07:55:47.179Z,7.50
2018-05-26T07:58:17.081Z,7.70
2018-05-26T08:00:44.560Z,7.83
2018-05-26T08:03:12.058Z,6.87
2018-05-26T08:05:40.298Z,5.90
2018-05-26T08:08:07.841Z,6.30
2018-05-26T08:10:39.657Z,6.10
2018-05-26T08:13:07.212Z,6.65
2018-05-26T08:15:36.275Z,6.65
2018-05-26T08:18:03.774Z,5.57
2018-05-26T08:20:31.274Z,6.00
2018-05-26T08:22:58.729Z,5.40
2018-05-26T08:25:26.180Z,6.40
2018-05-26T08:27:55.076Z,5.45
2018-05-26T08:30:22.552Z,6.00
2018-05-26T08:32:50.020Z,5.90
2018-05-26T08:35:17.491Z,5.57
2018-05-26T08:37:45.027Z,5.40
2018-05-26T08:40:12.778Z,5.20
2018-05-26T08:42:43.668Z,3.57
2018-05-26T08:45:11.481Z,4.10
2018-05-26T08:47:38.960Z,4.63
2018-05-26T08:50:06.429Z,4.57
2018-05-26T08:52:33.930Z,3.85
2018-05-26T08:55:01.432Z,4.30
2018-05-26T08:57:29.737Z,4.13
2018-05-26T08:59:58.111Z,3.96
2018-05-26T09:02:25.592Z,3.83
2018-05-26T09:04:53.077Z,3.53
2018-05-26T09:07:20.571Z,4.22
2018-05-26T09:09:48.810Z,4.40
2018-05-26T09:12:21.999Z,2.87
2018-05-26T09:14:52.641Z,2.90
2018-05-26T09:17:20.137Z,3.17
2018-05-26T09:19:49.357Z,3.53
2018-05-26T09:22:17.772Z,3.40
2018-05-26T09:24:46.125Z,3.30
2018-05-26T09:27:16.823Z,3.40
2018-05-26T09:29:45.080Z,3.07
2018-05-26T09:32:15.163Z,3.82
2018-05-26T09:34:43.476Z,3.63
2018-05-26T09:37:15.272Z,3.23
2018-05-26T09:39:44.508Z,3.33
2018-05-26T09:42:15.927Z,3.77
2018-05-26T09:44:44.567Z,2.76
2018-05-26T09:47:13.060Z,2.77
2018-05-26T09:49:40.646Z,3.50
2018-05-26T09:52:08.978Z,4.28
2018-05-26T09:54:38.597Z,3.17
2018-05-26T09:57:06.368Z,3.17
2018-05-26T09:59:34.240Z,2.85
2018-05-26T10:02:03.851Z,3.00
2018-05-26T10:04:31.369Z,3.27
2018-05-26T10:06:58.859Z,3.20
2018-05-26T10:09:27.101Z,3.00
2018-05-26T10:11:54.681Z,3.40
2018-05-26T10:14:22.178Z,3.30
2018-05-26T10:16:49.638Z,2.50
2018-05-26T10:19:18.048Z,2.40
2018-05-26T10:21:45.523Z,3.43
2018-05-26T10:24:13.252Z,2.73
2018-05-26T10:26:44.833Z,3.00
2018-05-26T10:29:13.333Z,3.50
2018-05-26T10:31:41.707Z,3.47
2018-05-26T10:34:09.860Z,2.45
2018-05-26T10:36:38.644Z,3.28
2018-05-26T10:39:07.945Z,4.03
2018-05-26T10:41:40.358Z,2.90
2018-05-26T10:46:44.160Z,3.07
2018-05-26T10:49:13.014Z,2.28
2018-05-26T10:51:40.578Z,3.33
2018-05-26T10:54:08.149Z,3.40
2018-05-26T10:56:36.992Z,2.70
2018-05-26T10:59:05.138Z,3.10
2018-05-26T11:01:32.780Z,2.75
2018-05-26T11:04:03.036Z,2.93
2018-05-26T11:09:25.149Z,2.70
2018-05-26T11:11:55.162Z,2.80
2018-05-26T11:14:24.236Z,3.15
2018-05-26T11:16:51.883Z,2.60
2018-05-26T11:19:20.377Z,3.17
2018-05-26T11:21:47.952Z,5.72
2018-05-26T11:24:16.965Z,3.30
2018-05-26T11:26:44.817Z,2.73
2018-05-26T11:29:14.121Z,3.03
2018-05-26T11:31:41.915Z,3.47
2018-05-26T11:34:09.376Z,2.40
2018-05-26T11:36:38.596Z,3.75
2018-05-26T11:39:06.093Z,2.73
2018-05-26T11:41:33.837Z,3.10
2018-05-26T11:44:03.049Z,2.25
2018-05-26T11:46:30.592Z,3.00
2018-05-26T11:48:58.992Z,3.17
2018-05-26T11:51:27.011Z,3.90
2018-05-26T11:53:54.837Z,3.10
2018-05-26T11:56:22.749Z,2.67
2018-05-26T11:58:51.888Z,2.97
2018-05-26T12:01:19.406Z,3.20
2018-05-26T12:03:48.169Z,2.87
2018-05-26T12:06:16.314Z,2.72
2018-05-26T12:08:44.787Z,2.95
2018-05-26T12:11:13.408Z,2.47
2018-05-26T12:13:42.048Z,2.67
2018-05-26T12:16:09.576Z,3.80
2018-05-26T12:18:38.177Z,3.03
2018-05-26T12:21:09.286Z,3.26
2018-05-26T12:23:37.865Z,3.58
2018-05-26T12:26:06.844Z,3.17
2018-05-26T12:28:38.825Z,2.70
2018-05-26T12:31:06.701Z,2.75
2018-05-26T12:33:34.256Z,2.70
2018-05-26T12:36:03.124Z,2.80
2018-05-26T12:38:30.620Z,2.70
2018-05-26T12:40:58.129Z,2.37
2018-05-26T12:43:25.657Z,2.83
2018-05-26T12:45:53.266Z,3.60
2018-05-26T12:48:20.757Z,3.10
2018-05-26T12:50:48.234Z,2.87
2018-05-26T12:53:15.811Z,5.60
2018-05-26T12:55:43.267Z,3.30
2018-05-26T12:58:10.724Z,3.17
2018-05-26T13:00:38.244Z,2.93
2018-05-26T13:03:05.741Z,3.37
2018-05-26T13:05:34.152Z,2.85
2018-05-26T13:08:01.612Z,4.50
2018-05-26T13:10:29.094Z,3.87
2018-05-26T13:12:57.357Z,3.70
2018-05-26T13:15:25.638Z,3.90
2018-05-26T13:17:53.137Z,3.55
2018-05-26T13:20:20.589Z,3.80
2018-05-26T13:22:48.083Z,3.30
2018-05-26T13:25:15.582Z,3.83
2018-05-26T13:27:43.060Z,3.10
2018-05-26T13:30:13.866Z,3.17
2018-05-26T13:32:41.349Z,3.70
2018-05-26T13:35:08.894Z,3.07
2018-05-26T13:37:37.156Z,3.10
2018-05-26T13:40:04.672Z,3.77
2018-05-26T13:42:32.163Z,3.80
2018-05-26T13:45:04.125Z,4.00
2018-05-26T13:47:32.242Z,3.00
2018-05-26T13:49:59.734Z,3.53
2018-05-26T13:52:27.995Z,3.00
2018-05-26T13:54:55.452Z,3.10
2018-05-26T13:57:22.956Z,2.90
2018-05-26T13:59:55.007Z,3.70
2018-05-26T14:02:22.490Z,3.50
2018-05-26T14:04:50.799Z,3.53
2018-05-26T14:07:18.253Z,3.60
2018-05-26T14:09:46.748Z,3.08
2018-05-26T14:12:14.203Z,3.20
2018-05-26T14:14:41.696Z,3.30
2018-05-26T14:17:09.174Z,3.80
2018-05-26T14:19:36.668Z,3.03
2018-05-26T14:22:04.113Z,3.10
2018-05-26T14:24:31.600Z,3.20
2018-05-26T14:27:00.003Z,3.45
2018-05-26T14:29:27.477Z,3.50
2018-05-26T14:31:59.353Z,4.10
2018-05-26T14:34:26.822Z,3.45
2018-05-26T14:36:55.223Z,3.40
2018-05-26T14:39:22.678Z,4.22
2018-05-26T14:41:50.171Z,3.40
2018-05-26T14:44:18.069Z,4.30
2018-05-26T14:46:50.100Z,3.17
2018-05-26T14:49:17.569Z,3.72
2018-05-26T14:51:45.825Z,3.30
2018-05-26T14:54:13.305Z,3.97
2018-05-26T14:56:41.576Z,3.53
2018-05-26T14:59:09.697Z,4.18
2018-05-26T15:01:37.161Z,4.65
2018-05-26T15:04:04.652Z,3.67
2018-05-26T15:06:32.118Z,3.85
2018-05-26T15:08:59.638Z,3.90
2018-05-26T15:11:27.133Z,3.73
2018-05-26T15:13:54.593Z,4.17
2018-05-26T15:16:25.735Z,3.30
2018-05-26T15:18:54.481Z,3.40
2018-05-26T15:21:22.031Z,3.27
2018-05-26T15:23:49.548Z,4.30
2018-05-26T15:26:18.704Z,3.40
2018-05-26T15:28:46.208Z,3.33
2018-05-26T15:31:14.434Z,3.90
2018-05-26T15:33:45.703Z,3.15
2018-05-26T15:36:13.177Z,3.47
2018-05-26T15:38:40.659Z,3.47
2018-05-26T15:41:08.886Z,4.00
2018-05-26T15:43:36.348Z,3.60
2018-05-26T15:46:03.808Z,3.75
2018-05-26T15:48:32.204Z,4.50
2018-05-26T15:51:00.522Z,5.53
2018-05-26T15:53:27.982Z,3.60
2018-05-26T15:55:55.477Z,3.67
2018-05-26T15:58:22.949Z,3.55
2018-05-26T16:00:50.398Z,4.23
2018-05-26T16:03:17.899Z,5.07
2018-05-26T16:05:46.043Z,3.60
2018-05-26T16:08:14.306Z,3.70
2018-05-26T16:10:41.756Z,3.73
2018-05-26T16:13:09.437Z,3.20
2018-05-26T16:15:36.904Z,3.23
2018-05-26T16:18:06.107Z,3.55
2018-05-26T16:20:34.363Z,3.50
2018-05-26T16:23:01.963Z,4.40
2018-05-26T16:25:30.858Z,4.15
2018-05-26T16:27:58.314Z,3.67
2018-05-26T16:30:25.785Z,3.95
2018-05-26T16:32:57.042Z,3.65
2018-05-26T16:35:25.827Z,3.85
2018-05-26T16:37:53.307Z,3.87
2018-05-26T16:40:20.768Z,3.17
2018-05-26T16:42:48.245Z,3.80
2018-05-26T16:45:16.567Z,3.47
2018-05-26T16:47:50.202Z,3.62
2018-05-26T16:50:19.431Z,3.50
2018-05-26T16:52:48.249Z,3.90
2018-05-26T16:55:15.745Z,3.37
2018-05-26T16:57:44.466Z,3.28
2018-05-26T17:00:12.982Z,3.37
2018-05-26T17:02:41.361Z,3.58
2018-05-26T17:05:12.085Z,3.03
2018-05-26T17:07:40.133Z,3.57
2018-05-26T17:10:07.672Z,4.03
2018-05-26T17:12:35.145Z,3.33
2018-05-26T17:15:03.451Z,3.67
2018-05-26T17:17:30.945Z,3.50
2018-05-26T17:19:59.327Z,3.53
2018-05-26T17:22:26.879Z,3.03
2018-05-26T17:24:54.355Z,2.80
2018-05-26T17:27:22.791Z,3.60
2018-05-26T17:29:50.927Z,3.30
2018-05-26T17:32:19.450Z,4.47
2018-05-26T17:34:52.723Z,3.12
2018-05-26T17:37:20.937Z,4.22
2018-05-26T17:39:48.474Z,4.90
2018-05-26T17:42:16.379Z,4.27
2018-05-26T17:44:44.420Z,4.10
2018-05-26T17:47:13.629Z,4.40
2018-05-26T17:49:45.009Z,3.77
2018-05-26T17:52:12.467Z,4.63
2018-05-26T17:54:41.369Z,3.63
2018-05-26T17:57:09.527Z,4.72
2018-05-26T17:59:37.082Z,3.70
2018-05-26T18:02:04.670Z,4.37
2018-05-26T18:04:33.105Z,4.03
2018-05-26T18:07:12.529Z,4.40
2018-05-26T18:09:41.409Z,4.60
2018-05-26T18:12:10.170Z,4.32
2018-05-26T18:14:39.580Z,4.78
2018-05-26T18:17:07.112Z,4.10
2018-05-26T18:19:36.934Z,4.07
2018-05-26T18:22:09.635Z,4.00
2018-05-26T18:24:39.293Z,3.45
2018-05-26T18:27:08.995Z,3.70
2018-05-26T18:29:37.569Z,4.47
2018-05-26T18:32:05.070Z,5.20
2018-05-26T18:34:32.594Z,4.90
2018-05-26T18:37:05.149Z,5.50
2018-05-26T18:39:32.628Z,5.45
2018-05-26T18:42:00.169Z,5.90
2018-05-26T18:44:29.433Z,4.78
2018-05-26T18:46:58.620Z,5.50
2018-05-26T18:49:26.729Z,5.40
2018-05-26T18:52:01.655Z,6.40
2018-05-26T18:54:30.776Z,5.60
2018-05-26T18:57:01.116Z,7.03
2018-05-26T18:59:29.454Z,5.42
2018-05-26T19:02:00.355Z,4.87
2018-05-26T19:04:30.359Z,4.82
2018-05-26T19:06:59.035Z,5.12
2018-05-26T19:09:29.622Z,5.25
2018-05-26T19:12:00.610Z,5.43
2018-05-26T19:14:30.288Z,5.13
2018-05-26T19:17:02.186Z,4.70
2018-05-26T19:19:32.183Z,6.18
2018-05-26T19:22:00.204Z,5.77
2018-05-26T19:24:28.541Z,6.20
2018-05-26T19:26:56.798Z,6.97
2018-05-26T19:29:25.811Z,6.00
2018-05-26T19:31:54.301Z,5.80
2018-05-26T19:34:23.270Z,5.43
2018-05-26T19:36:54.958Z,5.97
2018-05-26T19:39:23.405Z,6.27
2018-05-26T19:41:51.473Z,6.27
2018-05-26T19:44:20.286Z,6.40
2018-05-26T19:46:47.770Z,6.90
2018-05-26T19:49:16.035Z,6.35
2018-05-26T19:51:45.210Z,6.10
2018-05-26T19:54:13.556Z,6.00
2018-05-26T19:56:44.793Z,5.95
2018-05-26T19:59:12.252Z,6.00
2018-05-26T20:01:40.532Z,6.10
2018-05-26T20:04:08.045Z,7.62
2018-05-26T20:06:38.421Z,6.63
2018-05-26T20:09:06.771Z,7.20
2018-05-26T20:11:38.393Z,6.70
2018-05-26T20:14:08.357Z,7.37
2018-05-26T20:16:36.784Z,6.73
2018-05-26T20:19:04.768Z,6.53
2018-05-26T20:21:32.360Z,7.32
2018-05-26T20:23:59.882Z,6.40
2018-05-26T20:26:27.352Z,6.90
2018-05-26T20:28:54.857Z,7.40
2018-05-26T20:31:23.164Z,6.73
2018-05-26T20:33:50.660Z,6.63
2018-05-26T20:36:19.873Z,7.80
2018-05-26T20:38:49.814Z,6.30
2018-05-26T20:41:17.288Z,6.93
2018-05-26T20:43:46.936Z,8.10
2018-05-26T20:46:15.963Z,8.17
2018-05-26T20:48:45.288Z,9.10
2018-05-26T20:51:13.775Z,9.77
2018-05-26T20:53:41.543Z,10.33
2018-05-26T20:56:10.057Z,10.53
2018-05-26T20:58:37.523Z,10.55
2018-05-26T21:01:05.043Z,9.63
2018-05-26T21:03:33.247Z,8.38
2018-05-26T21:06:01.510Z,9.07
2018-05-26T21:08:30.392Z,8.90
2018-05-26T21:10:59.129Z,8.63
2018-05-26T21:13:26.587Z,8.75
2018-05-26T21:15:54.079Z,6.70
2018-05-26T21:18:21.584Z,8.27
2018-05-26T21:20:50.816Z,8.83
2018-05-26T21:23:18.385Z,9.17
2018-05-26T21:25:45.976Z,9.02
2018-05-26T21:28:13.483Z,9.80
2018-05-26T21:30:41.108Z,9.23
2018-05-26T21:33:09.408Z,11.00
2018-05-26T21:35:36.935Z,10.63
2018-05-26T21:38:04.828Z,10.53
2018-05-26T21:40:32.376Z,10.73
2018-05-26T21:43:01.609Z,9.50
2018-05-26T21:45:29.159Z,9.60
2018-05-26T21:47:56.666Z,10.15
2018-05-26T21:50:24.167Z,10.00
2018-05-26T21:52:55.001Z,9.80
2018-05-26T21:55:22.505Z,9.90
2018-05-26T21:57:51.544Z,9.20
2018-05-26T22:00:19.103Z,9.93
2018-05-26T22:02:46.668Z,8.80
2018-05-26T22:05:14.178Z,9.43
2018-05-26T22:07:41.783Z,11.20
2018-05-26T22:10:10.223Z,11.25
2018-05-26T22:12:37.734Z,10.47
2018-05-26T22:15:05.337Z,10.77
2018-05-26T22:17:32.824Z,11.30
2018-05-26T22:20:00.362Z,11.80
2018-05-26T22:22:27.842Z,11.87
2018-05-26T22:24:55.330Z,11.37
2018-05-26T22:27:23.793Z,11.05
2018-05-26T22:29:51.396Z,12.70
2018-05-26T22:32:18.897Z,13.47
2018-05-26T22:34:46.444Z,11.10
2018-05-26T22:37:13.961Z,11.93
2018-05-26T22:39:41.505Z,12.20
2018-05-26T22:42:08.977Z,11.80
2018-05-26T22:44:36.506Z,11.38
2018-05-26T22:47:04.024Z,14.70
2018-05-26T22:49:32.381Z,11.65
2018-05-26T22:51:59.858Z,11.20
2018-05-26T22:54:32.116Z,11.53
2018-05-26T22:56:59.595Z,11.23
2018-05-26T22:59:27.125Z,13.00
2018-05-26T23:01:54.590Z,13.13
2018-05-26T23:04:22.119Z,12.27
2018-05-26T23:06:49.617Z,12.40
2018-05-26T23:09:21.664Z,11.60
2018-05-26T23:11:49.169Z,12.03
2018-05-26T23:14:16.654Z,12.97
2018-05-26T23:16:44.160Z,11.63
2018-05-26T23:19:11.761Z,12.83
2018-05-26T23:21:39.265Z,12.30
2018-05-26T23:24:06.746Z,12.70
2018-05-26T23:26:34.239Z,12.27
2018-05-26T23:29:01.814Z,13.90
2018-05-26T23:31:30.984Z,14.60
2018-05-26T23:33:58.441Z,13.10
2018-05-26T23:36:25.936Z,14.65
2018-05-26T23:38:53.406Z,13.87
2018-05-26T23:41:25.621Z,15.57
2018-05-26T23:43:53.856Z,14.50
2018-05-26T23:46:21.573Z,15.07
2018-05-26T23:48:49.791Z,14.75
2018-05-26T23:51:17.249Z,14.20
2018-05-26T23:53:44.731Z,16.10
2018-05-26T23:56:12.278Z,15.00
2018-05-26T23:58:42.669Z,13.30
